Coburg, Germany
Current Conditions -  °F | °C
As of 2:20 PM on Thursday 27 Nov 2014 (Local Time) from EDQM Reporting Station
Overcast Overcast  
Wind Chill: 26°   Ceiling: 900
Heat Index: 34°   Visibility: 4mi
Dew Point: 28°   Wind: 10mph
Humidity: 81%   Direction: 120°ESE
Pressure: 29.85"   Gusts: NA
Location:  50.26°N, 10.97°E
Report Text: EDQM 271320Z 12009KT 7000 OVC009 01/M02 Q1011
Loading
Personal Weather Stations






























Interactive Weather Map New forecast layout! Learn more

10-Day Weather Forecast

Advertisements
Track Severe Weather on mobile